createdAt,value
2018-09-30T00:01:18.410Z,4.07
2018-09-30T00:03:46.099Z,4.05
2018-09-30T00:06:13.729Z,4.04
2018-09-30T00:08:41.333Z,4.02
2018-09-30T00:11:08.973Z,4.00
2018-09-30T00:13:36.577Z,3.95
2018-09-30T00:16:04.232Z,3.93
2018-09-30T00:18:31.846Z,3.92
2018-09-30T00:20:59.505Z,3.91
2018-09-30T00:23:27.213Z,3.90
2018-09-30T00:26:00.366Z,3.88
2018-09-30T00:28:27.992Z,3.85
2018-09-30T00:30:55.657Z,3.85
2018-09-30T00:33:23.272Z,3.86
2018-09-30T00:35:50.881Z,3.86
2018-09-30T00:38:18.621Z,3.84
2018-09-30T00:40:46.236Z,3.84
2018-09-30T00:43:13.854Z,3.83
2018-09-30T00:45:41.493Z,3.83
2018-09-30T00:48:09.113Z,3.83
2018-09-30T00:50:36.736Z,3.81
2018-09-30T00:53:04.408Z,3.81
2018-09-30T00:55:32.025Z,3.79
2018-09-30T00:57:59.632Z,3.78
2018-09-30T01:00:27.260Z,3.76
2018-09-30T01:02:54.920Z,3.77
2018-09-30T01:05:22.545Z,3.76
2018-09-30T01:07:50.248Z,3.76
2018-09-30T01:10:17.930Z,3.75
2018-09-30T01:12:45.592Z,3.77
2018-09-30T01:15:13.365Z,3.75
2018-09-30T01:17:41.003Z,3.76
2018-09-30T01:20:08.665Z,3.77
2018-09-30T01:22:36.276Z,3.78
2018-09-30T01:25:03.913Z,3.78
2018-09-30T01:27:31.560Z,3.79
2018-09-30T01:29:59.187Z,3.81
2018-09-30T01:32:26.861Z,3.82
2018-09-30T01:34:54.460Z,3.82
2018-09-30T01:37:22.094Z,3.83
2018-09-30T01:39:49.729Z,3.84
2018-09-30T01:42:17.354Z,3.85
2018-09-30T01:44:44.960Z,3.85
2018-09-30T01:47:12.601Z,3.83
2018-09-30T01:49:40.234Z,3.86
2018-09-30T01:52:19.089Z,3.85
2018-09-30T01:54:46.773Z,3.87
2018-09-30T01:57:14.416Z,3.90
2018-09-30T01:59:42.089Z,3.91
2018-09-30T02:02:09.773Z,3.90
2018-09-30T02:04:37.405Z,3.93
2018-09-30T02:07:05.109Z,3.96
2018-09-30T02:09:32.741Z,3.98
2018-09-30T02:12:00.505Z,4.00
2018-09-30T02:14:28.137Z,4.00
2018-09-30T02:16:55.761Z,4.02
2018-09-30T02:19:23.434Z,4.03
2018-09-30T02:21:51.047Z,4.03
2018-09-30T02:24:18.660Z,4.06
2018-09-30T02:26:46.336Z,4.04
2018-09-30T02:29:13.946Z,4.02
2018-09-30T02:31:41.709Z,4.03
2018-09-30T02:34:09.329Z,4.04
2018-09-30T02:36:37.033Z,4.05
2018-09-30T02:39:05.753Z,4.07
2018-09-30T02:41:33.366Z,4.12
2018-09-30T02:44:00.993Z,4.13
2018-09-30T02:46:28.753Z,4.16
2018-09-30T02:48:56.369Z,4.15
2018-09-30T02:51:23.989Z,4.15
2018-09-30T02:53:51.610Z,4.21
2018-09-30T02:56:19.222Z,4.21
2018-09-30T02:58:46.901Z,4.23
2018-09-30T03:01:14.524Z,4.24
2018-09-30T03:03:42.134Z,4.27
2018-09-30T03:06:16.200Z,4.36
2018-09-30T03:08:49.250Z,4.42
2018-09-30T03:11:16.932Z,4.49
2018-09-30T03:13:44.553Z,4.48
2018-09-30T03:16:12.181Z,4.52
2018-09-30T03:18:39.806Z,4.54
2018-09-30T03:21:07.425Z,4.61
2018-09-30T03:23:35.085Z,4.60
2018-09-30T03:26:02.715Z,4.59
2018-09-30T03:28:30.337Z,4.57
2018-09-30T03:30:58.008Z,4.57
2018-09-30T03:33:25.653Z,4.57
2018-09-30T03:35:53.280Z,4.55
2018-09-30T03:38:20.921Z,4.53
2018-09-30T03:40:48.554Z,4.52
2018-09-30T03:43:16.178Z,4.50
2018-09-30T03:45:43.861Z,4.50
2018-09-30T03:48:11.478Z,4.46
2018-09-30T03:50:39.080Z,4.44
2018-09-30T03:53:06.868Z,4.42
2018-09-30T03:55:34.487Z,4.41
2018-09-30T03:58:02.129Z,4.38
2018-09-30T04:00:29.776Z,4.37
2018-09-30T04:02:57.421Z,4.40
2018-09-30T04:05:25.061Z,4.43
2018-09-30T04:07:52.769Z,4.47
2018-09-30T04:10:20.393Z,4.48
2018-09-30T04:12:48.089Z,4.50
2018-09-30T04:15:15.723Z,4.50
2018-09-30T04:17:43.324Z,4.52
2018-09-30T04:20:11.041Z,4.56
2018-09-30T04:22:38.648Z,4.58
2018-09-30T04:25:06.385Z,4.58
2018-09-30T04:27:34.057Z,4.61
2018-09-30T04:30:01.661Z,4.61
2018-09-30T04:32:29.289Z,4.61
2018-09-30T04:34:56.935Z,4.64
2018-09-30T04:37:24.560Z,4.68
2018-09-30T04:39:52.161Z,4.69
2018-09-30T04:42:19.908Z,4.68
2018-09-30T04:44:47.580Z,4.71
2018-09-30T04:47:15.208Z,4.71
2018-09-30T04:49:42.849Z,4.72
2018-09-30T04:52:10.445Z,4.69
2018-09-30T04:54:38.068Z,4.71
2018-09-30T04:57:05.720Z,4.71
2018-09-30T04:59:33.332Z,4.73
2018-09-30T05:02:00.945Z,4.75
2018-09-30T05:04:28.567Z,4.75
2018-09-30T05:06:56.215Z,4.76
2018-09-30T05:09:23.857Z,4.75
2018-09-30T05:11:51.458Z,4.74
2018-09-30T05:14:19.243Z,4.75
2018-09-30T05:16:46.857Z,4.75
2018-09-30T05:19:14.473Z,4.77
2018-09-30T05:21:42.118Z,4.77
2018-09-30T05:24:09.789Z,4.77
2018-09-30T05:26:37.453Z,4.78
2018-09-30T05:29:05.297Z,4.78
2018-09-30T05:31:32.925Z,4.78
2018-09-30T05:34:00.577Z,4.79
2018-09-30T05:36:28.200Z,4.79
2018-09-30T05:38:55.857Z,4.83
2018-09-30T05:41:23.521Z,4.85
2018-09-30T05:43:51.245Z,4.85
2018-09-30T05:46:18.897Z,4.87
2018-09-30T05:48:46.515Z,4.90
2018-09-30T05:51:14.180Z,4.93
2018-09-30T05:53:41.825Z,4.96
2018-09-30T05:56:09.433Z,5.01
2018-09-30T05:58:37.100Z,5.05
2018-09-30T06:01:04.716Z,5.07
2018-09-30T06:03:32.387Z,5.10
2018-09-30T06:06:00.042Z,5.13
2018-09-30T06:08:27.698Z,5.16
2018-09-30T06:10:55.337Z,5.16
2018-09-30T06:13:22.965Z,5.22
2018-09-30T06:15:50.603Z,5.24
2018-09-30T06:18:18.269Z,5.28
2018-09-30T06:20:45.913Z,5.32
2018-09-30T06:23:13.520Z,5.35
2018-09-30T06:25:41.225Z,5.39
2018-09-30T06:28:08.840Z,5.42
2018-09-30T06:30:36.470Z,5.46
2018-09-30T06:33:04.609Z,5.50
2018-09-30T06:35:32.232Z,5.55
2018-09-30T06:37:59.871Z,5.63
2018-09-30T06:40:27.615Z,5.68
2018-09-30T06:42:55.276Z,5.77
2018-09-30T06:45:22.916Z,5.85
2018-09-30T06:47:50.557Z,5.92
2018-09-30T06:50:18.172Z,6.00
2018-09-30T06:52:45.840Z,6.04
2018-09-30T06:55:13.485Z,6.09
2018-09-30T06:57:41.092Z,6.13
2018-09-30T07:00:08.794Z,6.16
2018-09-30T07:02:36.424Z,6.20
2018-09-30T07:05:04.125Z,6.22
2018-09-30T07:07:31.790Z,6.28
2018-09-30T07:09:59.424Z,6.31
2018-09-30T07:12:27.057Z,6.34
2018-09-30T07:14:54.716Z,6.37
2018-09-30T07:17:22.576Z,6.40
2018-09-30T07:19:50.223Z,6.41
2018-09-30T07:22:17.921Z,6.42
2018-09-30T07:24:45.518Z,6.46
2018-09-30T07:27:13.153Z,6.46
2018-09-30T07:29:40.893Z,6.48
2018-09-30T07:32:08.789Z,6.48
2018-09-30T07:34:36.505Z,6.53
2018-09-30T07:37:04.174Z,6.52
2018-09-30T07:39:31.842Z,6.53
2018-09-30T07:41:59.516Z,6.53
2018-09-30T07:44:27.152Z,6.52
2018-09-30T07:46:54.837Z,6.53
2018-09-30T07:49:22.429Z,6.54
2018-09-30T07:51:50.226Z,6.53
2018-09-30T07:54:17.857Z,6.61
2018-09-30T07:56:45.473Z,6.65
2018-09-30T07:59:13.120Z,6.69
2018-09-30T08:01:40.761Z,6.70
2018-09-30T08:04:08.433Z,6.76
2018-09-30T08:06:36.053Z,6.80
2018-09-30T08:09:05.397Z,6.84
2018-09-30T08:11:33.056Z,6.94
2018-09-30T08:14:00.784Z,7.00
2018-09-30T08:16:28.454Z,7.04
2018-09-30T08:18:56.199Z,7.07
2018-09-30T08:21:23.832Z,7.15
2018-09-30T08:23:51.458Z,7.16
2018-09-30T08:26:19.189Z,7.20
2018-09-30T08:28:46.796Z,7.26
2018-09-30T08:31:14.433Z,7.32
2018-09-30T08:33:42.137Z,7.37
2018-09-30T08:36:10.494Z,7.49
2018-09-30T08:38:39.437Z,7.57
2018-09-30T08:41:09.180Z,7.67
2018-09-30T08:43:37.961Z,7.78
2018-09-30T08:46:06.088Z,7.84
2018-09-30T08:48:33.702Z,7.91
2018-09-30T08:51:01.352Z,7.92
2018-09-30T08:53:29.016Z,7.95
2018-09-30T08:55:57.364Z,8.11
2018-09-30T08:58:25.889Z,8.21
2018-09-30T09:00:53.517Z,8.22
2018-09-30T09:03:21.145Z,8.26
2018-09-30T09:05:48.881Z,8.39
2018-09-30T09:08:16.921Z,8.41
2018-09-30T09:10:44.580Z,8.46
2018-09-30T09:13:12.498Z,8.51
2018-09-30T09:15:40.174Z,8.59
2018-09-30T09:18:07.816Z,8.67
2018-09-30T09:20:35.512Z,8.76
2018-09-30T09:23:03.141Z,8.83
2018-09-30T09:25:30.812Z,8.92
2018-09-30T09:27:58.500Z,9.00
2018-09-30T09:30:26.166Z,9.20
2018-09-30T09:32:53.866Z,9.27
2018-09-30T09:35:21.463Z,9.43
2018-09-30T09:37:49.101Z,9.54
2018-09-30T09:40:16.793Z,9.65
2018-09-30T09:42:44.465Z,9.71
2018-09-30T09:45:12.108Z,9.75
2018-09-30T09:47:39.708Z,9.68
2018-09-30T09:50:07.829Z,9.75
2018-09-30T09:52:35.505Z,9.87
2018-09-30T09:55:03.255Z,9.92
2018-09-30T09:57:30.999Z,9.86
2018-09-30T09:59:58.577Z,9.86
2018-09-30T10:02:26.229Z,9.93
2018-09-30T10:04:53.847Z,9.93
2018-09-30T10:07:21.545Z,10.02
2018-09-30T10:09:49.256Z,9.96
2018-09-30T10:12:16.840Z,10.02
2018-09-30T10:14:44.530Z,10.07
2018-09-30T10:17:12.145Z,10.01
2018-09-30T10:19:39.912Z,10.12
2018-09-30T10:22:07.861Z,10.28
2018-09-30T10:24:35.476Z,10.38
2018-09-30T10:27:03.105Z,10.48
2018-09-30T10:29:30.740Z,10.59
2018-09-30T10:31:58.438Z,10.80
2018-09-30T10:34:26.057Z,10.98
2018-09-30T10:36:53.685Z,11.04
2018-09-30T10:39:21.514Z,11.16
2018-09-30T10:41:49.065Z,10.99
2018-09-30T10:44:17.203Z,10.93
2018-09-30T10:46:44.971Z,11.00
2018-09-30T10:49:12.765Z,11.06
2018-09-30T10:51:42.513Z,11.19
2018-09-30T10:54:10.116Z,11.19
2018-09-30T10:56:37.753Z,11.24
2018-09-30T10:59:05.469Z,11.32
2018-09-30T11:01:33.122Z,11.33
2018-09-30T11:04:00.827Z,11.29
2018-09-30T11:06:28.512Z,11.15
2018-09-30T11:08:56.205Z,11.20
2018-09-30T11:11:23.839Z,11.22
2018-09-30T11:13:51.480Z,11.36
2018-09-30T11:16:19.141Z,11.38
2018-09-30T11:18:46.780Z,11.32
2018-09-30T11:21:14.408Z,11.29
2018-09-30T11:23:42.022Z,11.20
2018-09-30T11:26:09.661Z,11.03
2018-09-30T11:28:37.278Z,10.91
2018-09-30T11:31:05.001Z,10.73
2018-09-30T11:33:32.612Z,10.75
2018-09-30T11:36:00.484Z,10.68
2018-09-30T11:38:28.144Z,10.69
2018-09-30T11:40:55.776Z,10.59
2018-09-30T11:43:23.487Z,10.59
2018-09-30T11:45:51.122Z,10.67
2018-09-30T11:48:18.765Z,10.75
2018-09-30T11:50:46.396Z,10.87
2018-09-30T11:53:14.057Z,10.99
2018-09-30T11:55:41.717Z,11.07
2018-09-30T11:58:09.322Z,10.98
2018-09-30T12:00:37.103Z,10.95
2018-09-30T12:03:04.788Z,10.96
2018-09-30T12:05:32.497Z,10.98
2018-09-30T12:08:00.113Z,11.04
2018-09-30T12:10:27.722Z,11.04
2018-09-30T12:12:55.402Z,11.15
2018-09-30T12:15:23.017Z,11.24
2018-09-30T12:17:50.645Z,11.29
2018-09-30T12:20:18.280Z,11.43
2018-09-30T12:22:45.905Z,11.39
2018-09-30T12:25:13.517Z,11.51
2018-09-30T12:27:41.153Z,11.43
2018-09-30T12:30:08.798Z,11.42
2018-09-30T12:32:36.423Z,11.46
2018-09-30T12:35:04.443Z,11.44
2018-09-30T12:37:32.080Z,11.48
2018-09-30T12:39:59.732Z,11.55
2018-09-30T12:42:27.361Z,11.33
2018-09-30T12:44:55.013Z,11.21
2018-09-30T12:47:22.817Z,11.07
2018-09-30T12:49:50.438Z,10.86
2018-09-30T12:52:18.056Z,10.74
2018-09-30T12:54:45.721Z,10.58
2018-09-30T12:57:13.333Z,10.52
2018-09-30T12:59:40.945Z,10.46
2018-09-30T13:02:08.586Z,10.39
2018-09-30T13:04:36.222Z,10.29
2018-09-30T13:07:03.997Z,10.19
2018-09-30T13:09:31.617Z,10.13
2018-09-30T13:11:59.239Z,10.08
2018-09-30T13:14:26.914Z,9.99
2018-09-30T13:16:54.559Z,9.96
2018-09-30T13:19:22.205Z,9.91
2018-09-30T13:21:49.883Z,9.88
2018-09-30T13:24:17.541Z,9.85
2018-09-30T13:26:45.171Z,9.76
2018-09-30T13:29:12.923Z,9.71
2018-09-30T13:31:40.548Z,9.64
2018-09-30T13:34:08.188Z,9.52
2018-09-30T13:36:35.858Z,9.47
2018-09-30T13:39:04.528Z,9.41
2018-09-30T13:41:32.257Z,9.37
2018-09-30T13:43:59.969Z,9.37
2018-09-30T13:46:27.655Z,9.38
2018-09-30T13:48:55.305Z,9.38
2018-09-30T13:51:23.053Z,9.32
2018-09-30T13:53:50.646Z,9.34
2018-09-30T13:56:18.383Z,9.29
2018-09-30T13:58:46.029Z,9.27
2018-09-30T14:01:13.678Z,9.25
2018-09-30T14:03:41.309Z,9.14
2018-09-30T14:06:09.031Z,9.10
2018-09-30T14:08:36.698Z,9.08
2018-09-30T14:11:04.412Z,9.07
2018-09-30T14:13:32.173Z,9.01
2018-09-30T14:15:59.821Z,8.93
2018-09-30T14:18:27.514Z,8.86
2018-09-30T14:20:55.184Z,8.82
2018-09-30T14:23:22.842Z,8.70
2018-09-30T14:25:50.539Z,8.59
2018-09-30T14:28:18.243Z,8.68
2018-09-30T14:30:45.953Z,8.78
2018-09-30T14:33:13.658Z,8.72
2018-09-30T14:35:41.283Z,8.69
2018-09-30T14:38:08.942Z,8.66
2018-09-30T14:40:36.624Z,8.59
2018-09-30T14:43:04.435Z,8.51
2018-09-30T14:45:32.054Z,8.48
2018-09-30T14:48:00.208Z,8.48
2018-09-30T14:50:29.019Z,8.42
2018-09-30T14:52:57.289Z,8.33
2018-09-30T14:55:25.268Z,8.27
2018-09-30T14:57:53.021Z,8.40
2018-09-30T15:00:20.644Z,8.36
2018-09-30T15:02:48.253Z,8.22
2018-09-30T15:05:15.970Z,8.17
2018-09-30T15:07:43.596Z,8.15
2018-09-30T15:10:11.239Z,8.15
2018-09-30T15:12:38.877Z,8.12
2018-09-30T15:15:07.785Z,7.98
2018-09-30T15:17:35.781Z,7.87
2018-09-30T15:20:03.513Z,7.79
2018-09-30T15:22:31.196Z,7.70
2018-09-30T15:24:59.252Z,7.60
2018-09-30T15:27:26.973Z,7.65
2018-09-30T15:29:54.633Z,7.67
2018-09-30T15:32:22.263Z,7.66
2018-09-30T15:34:49.890Z,7.57
2018-09-30T15:37:17.614Z,7.53
2018-09-30T15:39:45.233Z,7.48
2018-09-30T15:42:12.857Z,7.43
2018-09-30T15:44:40.566Z,7.34
2018-09-30T15:47:09.053Z,7.36
2018-09-30T15:49:36.721Z,7.22
2018-09-30T15:52:04.378Z,7.09
2018-09-30T15:54:32.016Z,6.95
2018-09-30T15:56:59.707Z,6.93
2018-09-30T15:59:27.334Z,6.94
2018-09-30T16:01:54.974Z,6.82
2018-09-30T16:04:22.601Z,6.72
2018-09-30T16:06:50.295Z,6.64
2018-09-30T16:09:17.907Z,6.53
2018-09-30T16:11:45.601Z,6.43
2018-09-30T16:14:13.244Z,6.29
2018-09-30T16:16:40.986Z,6.22
2018-09-30T16:19:08.667Z,6.18
2018-09-30T16:21:36.349Z,6.08
2018-09-30T16:24:04.017Z,5.96
2018-09-30T16:26:31.637Z,5.87
2018-09-30T16:28:59.308Z,5.78
2018-09-30T16:31:26.996Z,5.65
2018-09-30T16:33:54.649Z,5.54
2018-09-30T16:36:22.285Z,5.46
2018-09-30T16:38:50.032Z,5.35
2018-09-30T16:41:17.726Z,5.24
2018-09-30T16:43:45.350Z,5.13
2018-09-30T16:46:13.019Z,5.06
2018-09-30T16:48:40.701Z,5.06
2018-09-30T16:51:08.326Z,5.00
2018-09-30T16:53:36.087Z,4.96
2018-09-30T16:56:03.764Z,5.04
2018-09-30T16:58:31.381Z,4.95
2018-09-30T17:00:59.057Z,4.88
2018-09-30T17:03:26.670Z,4.79
2018-09-30T17:05:54.377Z,4.67
2018-09-30T17:08:22.094Z,4.61
2018-09-30T17:10:49.754Z,4.53
2018-09-30T17:13:17.429Z,4.42
2018-09-30T17:15:45.089Z,4.34
2018-09-30T17:18:12.718Z,4.25
2018-09-30T17:20:40.385Z,4.29
2018-09-30T17:23:08.020Z,4.23
2018-09-30T17:25:35.672Z,4.13
2018-09-30T17:28:03.353Z,4.11
2018-09-30T17:30:31.049Z,4.04
2018-09-30T17:32:58.713Z,4.01
2018-09-30T17:35:26.481Z,4.00
2018-09-30T17:37:54.195Z,4.04
2018-09-30T17:40:21.893Z,4.03
2018-09-30T17:42:49.520Z,4.01
2018-09-30T17:45:17.146Z,4.03
2018-09-30T17:47:44.828Z,4.10
2018-09-30T17:50:12.473Z,4.20
2018-09-30T17:52:40.115Z,4.20
2018-09-30T17:55:07.800Z,4.11
2018-09-30T17:57:35.467Z,4.03
2018-09-30T18:00:03.675Z,3.99
2018-09-30T18:02:31.306Z,4.02
2018-09-30T18:04:58.941Z,4.02
2018-09-30T18:07:26.593Z,3.96
2018-09-30T18:09:54.234Z,3.88
2018-09-30T18:12:21.961Z,3.84
2018-09-30T18:14:49.633Z,3.78
2018-09-30T18:17:17.315Z,3.80
2018-09-30T18:19:44.973Z,3.84
2018-09-30T18:22:12.628Z,3.97
2018-09-30T18:24:40.285Z,4.03
2018-09-30T18:27:07.893Z,4.04
2018-09-30T18:29:35.545Z,4.04
2018-09-30T18:32:03.322Z,4.19
2018-09-30T18:34:30.937Z,4.25
2018-09-30T18:36:58.566Z,4.14
2018-09-30T18:39:26.204Z,4.07
2018-09-30T18:41:53.815Z,4.06
2018-09-30T18:44:21.704Z,3.99
2018-09-30T18:46:49.322Z,3.95
2018-09-30T18:49:16.961Z,3.89
2018-09-30T18:51:44.602Z,3.86
2018-09-30T18:54:12.289Z,3.79
2018-09-30T18:56:39.904Z,3.77
2018-09-30T18:59:07.528Z,3.77
2018-09-30T19:01:35.266Z,3.77
2018-09-30T19:04:02.887Z,3.72
2018-09-30T19:06:30.621Z,3.64
2018-09-30T19:08:58.231Z,3.62
2018-09-30T19:11:25.954Z,3.61
2018-09-30T19:13:53.587Z,3.57
2018-09-30T19:16:21.401Z,3.50
2018-09-30T19:18:49.040Z,3.49
2018-09-30T19:21:16.700Z,3.48
2018-09-30T19:23:44.424Z,3.40
2018-09-30T19:26:12.068Z,3.35
2018-09-30T19:28:39.713Z,3.29
2018-09-30T19:31:07.652Z,3.23
2018-09-30T19:33:35.317Z,3.15
2018-09-30T19:36:02.933Z,3.11
2018-09-30T19:38:30.637Z,3.06
2018-09-30T19:40:58.278Z,3.00
2018-09-30T19:43:25.920Z,2.90
2018-09-30T19:45:53.685Z,2.79
2018-09-30T19:48:21.424Z,2.66
2018-09-30T19:50:49.027Z,2.57
2018-09-30T19:53:16.668Z,2.49
2018-09-30T19:55:44.345Z,2.43
2018-09-30T19:58:12.268Z,2.33
2018-09-30T20:00:39.892Z,2.21
2018-09-30T20:03:07.649Z,2.14
2018-09-30T20:05:35.310Z,2.03
2018-09-30T20:08:02.917Z,1.91
2018-09-30T20:10:30.595Z,1.84
2018-09-30T20:12:58.358Z,1.79
2018-09-30T20:15:25.985Z,1.73
2018-09-30T20:18:00.425Z,1.68
2018-09-30T20:20:28.061Z,1.58
2018-09-30T20:22:55.686Z,1.53
2018-09-30T20:25:23.310Z,1.49
2018-09-30T20:27:51.010Z,1.43
2018-09-30T20:30:18.753Z,1.39
2018-09-30T20:32:46.398Z,1.36
2018-09-30T20:35:14.061Z,1.35
2018-09-30T20:37:41.692Z,1.33
2018-09-30T20:40:09.355Z,1.28
2018-09-30T20:42:37.010Z,1.24
2018-09-30T20:45:04.748Z,1.20
2018-09-30T20:47:32.431Z,1.15
2018-09-30T20:50:00.086Z,1.06
2018-09-30T20:52:27.724Z,1.08
2018-09-30T20:54:55.369Z,1.05
2018-09-30T20:57:23.049Z,1.01
2018-09-30T20:59:50.672Z,1.01
2018-09-30T21:02:18.337Z,1.01
2018-09-30T21:04:45.964Z,0.96
2018-09-30T21:07:13.646Z,0.92
2018-09-30T21:09:41.281Z,0.90
2018-09-30T21:12:08.919Z,0.87
2018-09-30T21:14:36.558Z,0.79
2018-09-30T21:17:04.229Z,0.74
2018-09-30T21:19:31.845Z,0.66
2018-09-30T21:21:59.489Z,0.61
2018-09-30T21:24:27.129Z,0.58
2018-09-30T21:26:54.741Z,0.55
2018-09-30T21:29:22.360Z,0.53
2018-09-30T21:31:50.013Z,0.50
2018-09-30T21:34:17.725Z,0.53
2018-09-30T21:36:45.389Z,0.53
2018-09-30T21:39:13.033Z,0.51
2018-09-30T21:41:40.700Z,0.48
2018-09-30T21:44:08.621Z,0.47
2018-09-30T21:46:36.777Z,0.44
2018-09-30T21:49:04.540Z,0.40
2018-09-30T21:51:32.197Z,0.39
2018-09-30T21:53:59.845Z,0.36
2018-09-30T21:56:27.502Z,0.35
2018-09-30T21:58:55.513Z,0.34
2018-09-30T22:01:23.264Z,0.34
2018-09-30T22:03:50.829Z,0.33
2018-09-30T22:06:18.459Z,0.32
2018-09-30T22:08:46.111Z,0.33
2018-09-30T22:11:13.752Z,0.36
2018-09-30T22:13:41.385Z,0.35
2018-09-30T22:16:09.029Z,0.33
2018-09-30T22:18:36.685Z,0.30
2018-09-30T22:21:04.305Z,0.27
2018-09-30T22:23:31.987Z,0.26
2018-09-30T22:25:59.605Z,0.22
2018-09-30T22:28:27.215Z,0.18
2018-09-30T22:30:54.864Z,0.10
2018-09-30T22:33:22.512Z,0.02
2018-09-30T22:35:50.126Z,-0.04
2018-09-30T22:38:17.839Z,-0.07
2018-09-30T22:40:45.449Z,-0.08
2018-09-30T22:43:13.089Z,-0.07
2018-09-30T22:45:40.777Z,-0.06
2018-09-30T22:48:08.401Z,-0.05
2018-09-30T22:50:36.068Z,-0.06
2018-09-30T22:53:03.731Z,-0.08
2018-09-30T22:55:31.380Z,-0.10
2018-09-30T22:57:59.020Z,-0.13
2018-09-30T23:00:26.692Z,-0.14
2018-09-30T23:02:54.332Z,-0.15
2018-09-30T23:05:21.996Z,-0.20
2018-09-30T23:07:49.676Z,-0.23
2018-09-30T23:10:17.318Z,-0.25
2018-09-30T23:12:45.018Z,-0.29
2018-09-30T23:15:12.651Z,-0.32
2018-09-30T23:17:40.303Z,-0.32
2018-09-30T23:20:13.628Z,-0.30
2018-09-30T23:22:41.238Z,-0.31
2018-09-30T23:25:08.900Z,-0.36
2018-09-30T23:27:36.550Z,-0.44
2018-09-30T23:30:04.280Z,-0.46
2018-09-30T23:32:31.920Z,-0.46
2018-09-30T23:34:59.547Z,-0.47
2018-09-30T23:37:27.212Z,-0.52
2018-09-30T23:39:54.838Z,-0.56
2018-09-30T23:42:22.488Z,-0.57
2018-09-30T23:44:50.152Z,-0.59
2018-09-30T23:47:17.781Z,-0.68
2018-09-30T23:49:45.409Z,-0.76
2018-09-30T23:52:13.097Z,-0.78
2018-09-30T23:54:40.720Z,-0.83
2018-09-30T23:57:08.337Z,-0.91
2018-09-30T23:59:36.021Z,-0.97
